createdAt,value
2018-06-11T00:01:31.447Z,2.22
2018-06-11T00:03:59.982Z,1.70
2018-06-11T00:06:28.396Z,2.08
2018-06-11T00:08:56.855Z,1.80
2018-06-11T00:11:25.291Z,1.80
2018-06-11T00:13:53.830Z,2.17
2018-06-11T00:16:22.243Z,2.02
2018-06-11T00:18:50.703Z,1.90
2018-06-11T00:21:19.186Z,2.77
2018-06-11T00:23:47.628Z,1.80
2018-06-11T00:26:16.058Z,1.80
2018-06-11T00:28:44.495Z,3.25
2018-06-11T00:31:12.911Z,2.33
2018-06-11T00:33:41.351Z,2.30
2018-06-11T00:36:09.767Z,2.45
2018-06-11T00:38:38.228Z,2.40
2018-06-11T00:41:06.651Z,2.37
2018-06-11T00:43:34.793Z,2.30
2018-06-11T00:46:03.259Z,2.37
2018-06-11T00:48:31.736Z,2.40
2018-06-11T00:51:00.182Z,2.30
2018-06-11T00:53:28.626Z,2.20
2018-06-11T00:56:07.261Z,2.20
2018-06-11T00:58:35.823Z,2.20
2018-06-11T01:01:04.499Z,2.30
2018-06-11T01:03:32.992Z,2.08
2018-06-11T01:06:01.467Z,3.27
2018-06-11T01:08:29.923Z,2.65
2018-06-11T01:10:58.339Z,1.80
2018-06-11T01:13:26.807Z,2.00
2018-06-11T01:15:55.239Z,2.10
2018-06-11T01:18:23.648Z,1.85
2018-06-11T01:20:52.116Z,2.00
2018-06-11T01:23:20.567Z,1.90
2018-06-11T01:25:49.054Z,2.17
2018-06-11T01:28:17.476Z,2.00
2018-06-11T01:30:45.930Z,1.95
2018-06-11T01:33:14.383Z,1.95
2018-06-11T01:35:42.822Z,2.00
2018-06-11T01:38:11.269Z,1.98
2018-06-11T01:40:39.739Z,1.92
2018-06-11T01:43:08.151Z,1.92
2018-06-11T01:45:36.598Z,3.22
2018-06-11T01:48:05.089Z,1.90
2018-06-11T01:50:33.567Z,2.10
2018-06-11T01:53:02.052Z,2.40
2018-06-11T01:55:30.527Z,1.90
2018-06-11T01:57:58.948Z,2.25
2018-06-11T02:00:27.381Z,2.55
2018-06-11T02:02:55.803Z,1.98
2018-06-11T02:05:24.246Z,2.15
2018-06-11T02:07:52.675Z,1.90
2018-06-11T02:10:21.166Z,2.00
2018-06-11T02:12:49.656Z,2.00
2018-06-11T02:15:18.120Z,2.67
2018-06-11T02:17:46.560Z,2.20
2018-06-11T02:20:15.012Z,2.20
2018-06-11T02:22:43.443Z,1.90
2018-06-11T02:25:11.893Z,2.40
2018-06-11T02:27:40.343Z,1.90
2018-06-11T02:30:08.824Z,2.00
2018-06-11T02:32:37.288Z,1.90
2018-06-11T02:35:05.809Z,1.80
2018-06-11T02:37:34.276Z,2.20
2018-06-11T02:40:02.814Z,2.00
2018-06-11T02:42:31.256Z,1.80
2018-06-11T02:44:59.738Z,1.80
2018-06-11T02:47:28.187Z,1.75
2018-06-11T02:49:56.636Z,1.80
2018-06-11T02:52:25.117Z,2.20
2018-06-11T02:54:53.544Z,2.10
2018-06-11T02:57:21.972Z,1.80
2018-06-11T02:59:50.395Z,2.10
2018-06-11T03:02:18.884Z,2.20
2018-06-11T03:04:47.312Z,1.70
2018-06-11T03:07:15.788Z,1.82
2018-06-11T03:09:44.223Z,2.22
2018-06-11T03:12:12.655Z,3.02
2018-06-11T03:14:41.094Z,1.90
2018-06-11T03:17:09.516Z,1.60
2018-06-11T03:19:37.950Z,2.40
2018-06-11T03:22:06.488Z,1.90
2018-06-11T03:24:34.933Z,1.70
2018-06-11T03:27:03.388Z,1.65
2018-06-11T03:29:32.406Z,2.17
2018-06-11T03:32:00.936Z,1.70
2018-06-11T03:34:29.382Z,2.02
2018-06-11T03:36:57.805Z,1.87
2018-06-11T03:39:26.278Z,1.70
2018-06-11T03:41:54.712Z,1.70
2018-06-11T03:44:23.185Z,1.90
2018-06-11T03:46:51.622Z,1.60
2018-06-11T03:49:20.092Z,1.60
2018-06-11T03:51:48.542Z,2.05
2018-06-11T03:54:17.022Z,1.70
2018-06-11T03:56:45.468Z,1.85
2018-06-11T03:59:13.904Z,1.70
2018-06-11T04:01:42.332Z,1.80
2018-06-11T04:04:10.816Z,1.85
2018-06-11T04:06:39.284Z,2.10
2018-06-11T04:09:08.574Z,1.95
2018-06-11T04:11:37.041Z,1.90
2018-06-11T04:14:05.247Z,1.90
2018-06-11T04:16:33.693Z,2.20
2018-06-11T04:19:02.204Z,2.00
2018-06-11T04:21:30.665Z,2.00
2018-06-11T04:23:59.116Z,5.05
2018-06-11T04:26:27.552Z,2.45
2018-06-11T04:28:55.998Z,2.47
2018-06-11T04:31:24.438Z,2.50
2018-06-11T04:33:52.907Z,2.77
2018-06-11T04:36:21.359Z,2.80
2018-06-11T04:38:49.811Z,2.30
2018-06-11T04:41:18.292Z,2.40
2018-06-11T04:43:46.762Z,3.25
2018-06-11T04:46:15.203Z,2.20
2018-06-11T04:48:43.648Z,2.40
2018-06-11T04:51:12.099Z,2.40
2018-06-11T04:53:40.554Z,2.40
2018-06-11T04:56:08.972Z,2.33
2018-06-11T04:58:37.384Z,2.30
2018-06-11T05:01:05.824Z,2.50
2018-06-11T05:03:34.371Z,2.50
2018-06-11T05:06:02.879Z,2.60
2018-06-11T05:08:31.338Z,2.42
2018-06-11T05:10:59.840Z,3.33
2018-06-11T05:13:28.263Z,2.80
2018-06-11T05:15:56.710Z,2.65
2018-06-11T05:18:25.112Z,3.27
2018-06-11T05:20:53.622Z,2.90
2018-06-11T05:23:22.046Z,2.80
2018-06-11T05:25:50.480Z,2.60
2018-06-11T05:28:18.912Z,2.60
2018-06-11T05:30:47.392Z,2.80
2018-06-11T05:33:15.812Z,2.80
2018-06-11T05:35:44.235Z,3.00
2018-06-11T05:38:12.763Z,2.80
2018-06-11T05:40:41.230Z,2.90
2018-06-11T05:43:09.599Z,3.20
2018-06-11T05:45:37.751Z,2.97
2018-06-11T05:48:06.217Z,3.10
2018-06-11T05:50:34.703Z,3.83
2018-06-11T05:53:03.148Z,3.17
2018-06-11T05:55:32.101Z,3.10
2018-06-11T05:58:00.553Z,3.20
2018-06-11T06:00:28.972Z,3.20
2018-06-11T06:02:57.393Z,2.80
2018-06-11T06:05:25.852Z,2.90
2018-06-11T06:07:54.271Z,3.10
2018-06-11T06:10:22.676Z,3.40
2018-06-11T06:12:51.088Z,3.17
2018-06-11T06:15:19.516Z,3.30
2018-06-11T06:17:47.931Z,3.00
2018-06-11T06:20:16.364Z,2.97
2018-06-11T06:22:44.791Z,3.10
2018-06-11T06:25:13.224Z,3.10
2018-06-11T06:27:41.628Z,3.30
2018-06-11T06:30:10.012Z,3.33
2018-06-11T06:32:38.443Z,3.33
2018-06-11T06:35:06.855Z,3.07
2018-06-11T06:37:35.287Z,2.83
2018-06-11T06:40:03.777Z,2.87
2018-06-11T06:42:32.245Z,3.73
2018-06-11T06:45:01.191Z,3.20
2018-06-11T06:47:29.606Z,2.90
2018-06-11T06:50:04.275Z,3.50
2018-06-11T06:52:32.698Z,4.40
2018-06-11T06:55:01.190Z,2.90
2018-06-11T06:57:29.609Z,3.13
2018-06-11T06:59:58.006Z,3.67
2018-06-11T07:02:26.427Z,3.00
2018-06-11T07:04:54.835Z,3.30
2018-06-11T07:07:23.244Z,3.10
2018-06-11T07:09:51.659Z,3.53
2018-06-11T07:12:20.070Z,3.60
2018-06-11T07:14:48.511Z,3.73
2018-06-11T07:17:16.938Z,3.50
2018-06-11T07:19:45.336Z,3.67
2018-06-11T07:22:13.740Z,3.80
2018-06-11T07:24:42.139Z,3.00
2018-06-11T07:27:10.558Z,3.70
2018-06-11T07:29:38.659Z,3.70
2018-06-11T07:32:07.108Z,3.40
2018-06-11T07:34:35.524Z,3.30
2018-06-11T07:37:03.931Z,3.23
2018-06-11T07:39:32.461Z,3.30
2018-06-11T07:42:00.942Z,3.27
2018-06-11T07:44:29.344Z,3.60
2018-06-11T07:46:58.917Z,3.10
2018-06-11T07:49:27.336Z,4.57
2018-06-11T07:51:55.734Z,3.20
2018-06-11T07:54:24.187Z,4.57
2018-06-11T07:56:52.640Z,3.40
2018-06-11T07:59:21.047Z,4.33
2018-06-11T08:01:49.428Z,4.17
2018-06-11T08:04:17.835Z,3.17
2018-06-11T08:06:46.222Z,4.23
2018-06-11T08:09:14.646Z,3.50
2018-06-11T08:11:43.040Z,4.13
2018-06-11T08:14:11.475Z,3.70
2018-06-11T08:16:39.903Z,3.70
2018-06-11T08:19:09.871Z,3.30
2018-06-11T08:21:38.334Z,3.33
2018-06-11T08:24:06.842Z,3.37
2018-06-11T08:26:35.362Z,3.63
2018-06-11T08:29:03.841Z,3.80
2018-06-11T08:31:32.256Z,3.50
2018-06-11T08:34:00.676Z,3.40
2018-06-11T08:36:29.095Z,3.33
2018-06-11T08:38:57.559Z,3.60
2018-06-11T08:41:25.947Z,4.37
2018-06-11T08:43:54.335Z,3.13
2018-06-11T08:46:22.751Z,3.30
2018-06-11T08:48:51.215Z,4.37
2018-06-11T08:51:19.708Z,3.33
2018-06-11T08:53:48.153Z,3.50
2018-06-11T08:56:16.556Z,3.50
2018-06-11T08:58:45.846Z,3.60
2018-06-11T09:01:14.285Z,3.73
2018-06-11T09:03:42.704Z,3.17
2018-06-11T09:06:11.150Z,3.67
2018-06-11T09:08:39.286Z,3.40
2018-06-11T09:11:07.761Z,3.57
2018-06-11T09:13:36.216Z,3.70
2018-06-11T09:16:04.739Z,3.50
2018-06-11T09:18:33.204Z,3.30
2018-06-11T09:21:08.067Z,3.20
2018-06-11T09:23:36.480Z,3.70
2018-06-11T09:26:05.188Z,3.50
2018-06-11T09:28:33.643Z,4.07
2018-06-11T09:31:02.161Z,4.13
2018-06-11T09:33:30.537Z,3.40
2018-06-11T09:35:58.927Z,3.40
2018-06-11T09:38:27.371Z,8.80
2018-06-11T09:40:55.788Z,3.47
2018-06-11T09:43:24.220Z,3.83
2018-06-11T09:45:52.604Z,3.50
2018-06-11T09:48:21.093Z,4.17
2018-06-11T09:50:49.526Z,3.50
2018-06-11T09:53:17.919Z,3.20
2018-06-11T09:55:46.352Z,4.17
2018-06-11T09:58:14.771Z,3.40
2018-06-11T10:00:43.202Z,4.27
2018-06-11T10:03:11.616Z,3.40
2018-06-11T10:05:40.108Z,3.20
2018-06-11T10:08:08.515Z,3.40
2018-06-11T10:10:36.933Z,3.87
2018-06-11T10:13:05.384Z,3.13
2018-06-11T10:15:33.905Z,4.47
2018-06-11T10:18:02.391Z,3.60
2018-06-11T10:20:30.807Z,11.30
2018-06-11T10:22:59.224Z,3.70
2018-06-11T10:25:27.659Z,3.40
2018-06-11T10:27:56.051Z,3.30
2018-06-11T10:30:24.662Z,3.43
2018-06-11T10:32:53.188Z,3.97
2018-06-11T10:35:21.605Z,3.80
2018-06-11T10:37:50.024Z,3.30
2018-06-11T10:40:18.482Z,4.93
2018-06-11T10:42:46.914Z,3.50
2018-06-11T10:45:15.375Z,3.30
2018-06-11T10:47:43.867Z,3.80
2018-06-11T10:50:12.412Z,4.10
2018-06-11T10:52:40.830Z,3.50
2018-06-11T10:55:09.271Z,3.77
2018-06-11T10:57:37.677Z,4.20
2018-06-11T11:00:06.191Z,3.30
2018-06-11T11:02:34.579Z,3.20
2018-06-11T11:05:03.110Z,3.30
2018-06-11T11:07:31.516Z,3.23
2018-06-11T11:09:59.948Z,5.00
2018-06-11T11:12:28.415Z,3.37
2018-06-11T11:14:56.799Z,3.60
2018-06-11T11:17:25.184Z,5.17
2018-06-11T11:19:53.562Z,3.27
2018-06-11T11:22:21.924Z,3.50
2018-06-11T11:24:50.325Z,3.30
2018-06-11T11:27:18.696Z,4.07
2018-06-11T11:29:47.180Z,3.30
2018-06-11T11:32:15.560Z,4.03
2018-06-11T11:34:43.960Z,4.00
2018-06-11T11:37:12.335Z,4.23
2018-06-11T11:39:40.740Z,4.23
2018-06-11T11:42:09.143Z,4.13
2018-06-11T11:44:37.531Z,3.30
2018-06-11T11:47:05.944Z,3.20
2018-06-11T11:49:34.319Z,3.30
2018-06-11T11:52:02.746Z,3.50
2018-06-11T11:54:31.711Z,3.60
2018-06-11T11:57:00.152Z,3.70
2018-06-11T11:59:28.549Z,3.63
2018-06-11T12:01:56.960Z,3.60
2018-06-11T12:04:25.339Z,3.20
2018-06-11T12:06:53.728Z,3.67
2018-06-11T12:09:22.096Z,3.27
2018-06-11T12:11:50.506Z,3.60
2018-06-11T12:14:19.004Z,3.77
2018-06-11T12:16:47.395Z,4.23
2018-06-11T12:19:15.804Z,3.70
2018-06-11T12:21:44.190Z,3.30
2018-06-11T12:24:12.568Z,3.50
2018-06-11T12:26:40.983Z,3.70
2018-06-11T12:29:09.355Z,3.50
2018-06-11T12:31:37.758Z,3.30
2018-06-11T12:34:06.144Z,3.30
2018-06-11T12:36:34.540Z,3.63
2018-06-11T12:39:03.301Z,3.97
2018-06-11T12:41:31.723Z,3.60
2018-06-11T12:44:00.132Z,3.20
2018-06-11T12:46:28.559Z,7.40
2018-06-11T12:48:56.944Z,3.30
2018-06-11T12:51:25.339Z,4.10
2018-06-11T12:53:53.724Z,4.03
2018-06-11T12:56:22.194Z,3.77
2018-06-11T12:58:50.560Z,3.60
2018-06-11T13:04:02.738Z,3.30
2018-06-11T13:06:31.140Z,4.20
2018-06-11T13:08:59.508Z,3.63
2018-06-11T13:11:27.895Z,3.17
2018-06-11T13:13:56.367Z,4.03
2018-06-11T13:16:24.767Z,4.33
2018-06-11T13:18:53.182Z,3.20
2018-06-11T13:21:21.573Z,3.67
2018-06-11T13:23:49.975Z,3.80
2018-06-11T13:26:18.385Z,3.60
2018-06-11T13:28:46.786Z,3.30
2018-06-11T13:31:15.163Z,4.50
2018-06-11T13:33:43.567Z,4.50
2018-06-11T13:36:11.956Z,4.43
2018-06-11T13:38:40.371Z,3.30
2018-06-11T13:41:08.756Z,3.17
2018-06-11T13:43:37.180Z,3.60
2018-06-11T13:46:05.612Z,4.33
2018-06-11T13:48:34.044Z,3.50
2018-06-11T13:51:02.490Z,3.77
2018-06-11T13:53:30.903Z,3.80
2018-06-11T13:55:59.296Z,3.53
2018-06-11T13:58:27.719Z,3.30
2018-06-11T14:00:56.103Z,3.30
2018-06-11T14:03:24.632Z,3.23
2018-06-11T14:05:53.069Z,3.30
2018-06-11T14:08:21.483Z,3.47
2018-06-11T14:10:49.879Z,3.30
2018-06-11T14:13:18.404Z,3.90
2018-06-11T14:15:46.816Z,3.50
2018-06-11T14:18:15.220Z,3.30
2018-06-11T14:20:43.604Z,3.73
2018-06-11T14:23:12.005Z,8.60
2018-06-11T14:25:40.408Z,3.23
2018-06-11T14:28:08.843Z,5.40
2018-06-11T14:30:37.004Z,5.60
2018-06-11T14:33:05.567Z,3.23
2018-06-11T14:35:33.996Z,3.40
2018-06-11T14:38:02.424Z,4.03
2018-06-11T14:40:30.864Z,3.80
2018-06-11T14:42:59.256Z,4.63
2018-06-11T14:45:27.668Z,3.50
2018-06-11T14:47:56.079Z,3.30
2018-06-11T14:50:24.496Z,3.60
2018-06-11T14:52:52.913Z,3.30
2018-06-11T14:55:21.328Z,4.43
2018-06-11T14:57:49.747Z,4.60
2018-06-11T15:00:18.185Z,3.87
2018-06-11T15:02:46.597Z,4.83
2018-06-11T15:05:15.002Z,3.10
2018-06-11T15:07:43.397Z,3.70
2018-06-11T15:10:11.827Z,3.33
2018-06-11T15:12:40.216Z,3.00
2018-06-11T15:15:08.648Z,2.80
2018-06-11T15:17:37.025Z,2.80
2018-06-11T15:20:05.462Z,2.83
2018-06-11T15:22:33.923Z,2.60
2018-06-11T15:25:02.441Z,3.10
2018-06-11T15:27:30.866Z,2.90
2018-06-11T15:29:59.309Z,2.50
2018-06-11T15:32:27.678Z,3.30
2018-06-11T15:34:56.144Z,2.50
2018-06-11T15:37:24.564Z,2.60
2018-06-11T15:39:52.960Z,2.60
2018-06-11T15:42:21.356Z,2.60
2018-06-11T15:44:49.829Z,2.60
2018-06-11T15:47:18.442Z,2.57
2018-06-11T15:49:46.844Z,2.60
2018-06-11T15:52:15.248Z,3.27
2018-06-11T15:54:43.639Z,2.50
2018-06-11T15:57:12.492Z,2.50
2018-06-11T15:59:41.354Z,2.47
2018-06-11T16:02:09.849Z,2.40
2018-06-11T16:04:38.329Z,2.30
2018-06-11T16:07:06.804Z,2.10
2018-06-11T16:09:35.250Z,2.30
2018-06-11T16:12:03.769Z,1.70
2018-06-11T16:14:32.232Z,1.50
2018-06-11T16:17:00.735Z,3.05
2018-06-11T16:19:29.183Z,1.25
2018-06-11T16:21:57.689Z,1.20
2018-06-11T16:24:26.136Z,1.25
2018-06-11T16:26:54.576Z,1.20
2018-06-11T16:29:23.108Z,1.07
2018-06-11T16:31:51.541Z,1.20
2018-06-11T16:34:19.990Z,1.10
2018-06-11T16:36:48.174Z,1.30
2018-06-11T16:39:16.640Z,1.15
2018-06-11T16:41:45.134Z,1.20
2018-06-11T16:44:13.580Z,1.30
2018-06-11T16:46:42.011Z,1.17
2018-06-11T16:49:10.531Z,1.20
2018-06-11T16:51:39.051Z,1.65
2018-06-11T16:54:07.554Z,1.20
2018-06-11T16:56:35.768Z,1.20
2018-06-11T16:59:04.241Z,1.20
2018-06-11T17:01:32.727Z,1.20
2018-06-11T17:04:01.204Z,1.45
2018-06-11T17:06:29.756Z,1.20
2018-06-11T17:08:58.295Z,1.30
2018-06-11T17:11:26.925Z,1.27
2018-06-11T17:13:55.502Z,1.30
2018-06-11T17:16:24.126Z,1.25
2018-06-11T17:18:52.713Z,1.20
2018-06-11T17:21:21.319Z,1.40
2018-06-11T17:23:49.823Z,1.40
2018-06-11T17:26:18.423Z,1.40
2018-06-11T17:28:46.938Z,1.30
2018-06-11T17:31:15.464Z,1.30
2018-06-11T17:33:44.122Z,1.20
2018-06-11T17:36:12.565Z,1.30
2018-06-11T17:38:47.101Z,1.40
2018-06-11T17:41:15.630Z,1.20
2018-06-11T17:43:44.052Z,1.17
2018-06-11T17:46:12.579Z,1.20
2018-06-11T17:48:41.052Z,1.20
2018-06-11T17:51:09.528Z,1.30
2018-06-11T17:53:37.975Z,1.20
2018-06-11T17:56:06.458Z,1.20
2018-06-11T17:58:35.036Z,1.20
2018-06-11T18:01:03.497Z,1.67
2018-06-11T18:03:32.012Z,1.20
2018-06-11T18:06:01.538Z,1.30
2018-06-11T18:08:30.670Z,1.27
2018-06-11T18:10:59.092Z,1.12
2018-06-11T18:13:27.693Z,1.20
2018-06-11T18:15:56.435Z,1.30
2018-06-11T18:18:24.983Z,1.47
2018-06-11T18:20:53.715Z,1.22
2018-06-11T18:23:22.342Z,1.22
2018-06-11T18:25:51.902Z,1.20
2018-06-11T18:28:20.531Z,1.30
2018-06-11T18:30:49.015Z,1.20
2018-06-11T18:33:17.646Z,1.30
2018-06-11T18:35:46.134Z,1.30
2018-06-11T18:38:14.709Z,1.25
2018-06-11T18:40:43.244Z,1.30
2018-06-11T18:43:11.346Z,1.42
2018-06-11T18:45:39.859Z,1.20
2018-06-11T18:48:08.297Z,1.30
2018-06-11T18:50:36.830Z,1.20
2018-06-11T18:53:05.546Z,1.30
2018-06-11T18:55:34.070Z,1.40
2018-06-11T18:58:02.621Z,1.60
2018-06-11T19:00:31.236Z,1.30
2018-06-11T19:02:59.743Z,1.35
2018-06-11T19:05:28.280Z,1.35
2018-06-11T19:07:56.755Z,1.57
2018-06-11T19:10:25.343Z,1.50
2018-06-11T19:12:53.950Z,1.47
2018-06-11T19:15:22.531Z,1.42
2018-06-11T19:17:50.987Z,1.50
2018-06-11T19:20:19.579Z,1.50
2018-06-11T19:22:48.031Z,1.50
2018-06-11T19:25:16.507Z,1.60
2018-06-11T19:27:44.978Z,1.60
2018-06-11T19:30:13.451Z,1.50
2018-06-11T19:32:41.892Z,1.75
2018-06-11T19:35:10.359Z,1.50
2018-06-11T19:37:38.847Z,1.50
2018-06-11T19:40:07.408Z,1.50
2018-06-11T19:42:35.557Z,1.47
2018-06-11T19:45:04.141Z,1.50
2018-06-11T19:47:32.636Z,1.80
2018-06-11T19:50:01.204Z,1.60
2018-06-11T19:52:29.602Z,1.82
2018-06-11T19:54:58.053Z,1.90
2018-06-11T19:57:26.561Z,1.80
2018-06-11T19:59:55.046Z,1.65
2018-06-11T20:02:23.488Z,1.92
2018-06-11T20:04:51.952Z,1.60
2018-06-11T20:07:20.472Z,2.50
2018-06-11T20:09:48.892Z,1.80
2018-06-11T20:12:17.428Z,1.40
2018-06-11T20:14:45.877Z,1.50
2018-06-11T20:17:14.415Z,1.40
2018-06-11T20:19:42.866Z,1.40
2018-06-11T20:22:11.363Z,1.40
2018-06-11T20:24:39.856Z,1.50
2018-06-11T20:27:08.319Z,1.40
2018-06-11T20:29:37.071Z,1.50
2018-06-11T20:32:05.676Z,1.47
2018-06-11T20:34:34.210Z,1.50
2018-06-11T20:37:02.770Z,1.50
2018-06-11T20:39:31.252Z,1.50
2018-06-11T20:41:59.764Z,1.50
2018-06-11T20:44:28.215Z,1.50
2018-06-11T20:46:56.748Z,1.40
2018-06-11T20:49:25.248Z,1.90
2018-06-11T20:51:53.971Z,1.80
2018-06-11T20:54:22.481Z,1.55
2018-06-11T20:56:51.246Z,1.50
2018-06-11T20:59:19.383Z,1.50
2018-06-11T21:01:47.824Z,2.27
2018-06-11T21:04:16.240Z,1.57
2018-06-11T21:06:44.688Z,1.60
2018-06-11T21:09:13.164Z,1.70
2018-06-11T21:11:41.613Z,1.55
2018-06-11T21:14:10.092Z,1.57
2018-06-11T21:16:38.516Z,1.50
2018-06-11T21:19:06.997Z,2.00
2018-06-11T21:21:35.483Z,2.70
2018-06-11T21:24:03.982Z,1.50
2018-06-11T21:26:32.466Z,1.55
2018-06-11T21:29:01.004Z,1.50
2018-06-11T21:31:29.403Z,1.60
2018-06-11T21:33:57.862Z,1.50
2018-06-11T21:36:26.323Z,1.60
2018-06-11T21:38:54.800Z,1.70
2018-06-11T21:41:23.298Z,1.45
2018-06-11T21:43:51.762Z,1.50
2018-06-11T21:46:20.203Z,1.50
2018-06-11T21:48:48.671Z,1.50
2018-06-11T21:51:17.096Z,1.60
2018-06-11T21:53:45.680Z,1.57
2018-06-11T21:56:14.080Z,1.50
2018-06-11T21:58:42.490Z,1.50
2018-06-11T22:01:11.003Z,1.55
2018-06-11T22:03:39.462Z,1.50
2018-06-11T22:06:07.953Z,2.17
2018-06-11T22:08:36.400Z,1.60
2018-06-11T22:11:04.844Z,1.60
2018-06-11T22:13:33.810Z,1.67
2018-06-11T22:16:02.279Z,1.60
2018-06-11T22:18:30.712Z,1.57
2018-06-11T22:20:59.159Z,1.82
2018-06-11T22:23:27.581Z,1.60
2018-06-11T22:25:56.039Z,1.57
2018-06-11T22:28:24.583Z,1.55
2018-06-11T22:30:53.062Z,2.05
2018-06-11T22:33:21.494Z,1.50
2018-06-11T22:35:49.951Z,1.50
2018-06-11T22:38:18.385Z,1.50
2018-06-11T22:40:46.850Z,1.70
2018-06-11T22:43:15.282Z,1.40
2018-06-11T22:45:43.722Z,1.50
2018-06-11T22:48:12.214Z,1.90
2018-06-11T22:50:40.656Z,1.50
2018-06-11T22:53:09.031Z,1.37
2018-06-11T22:55:37.490Z,1.50
2018-06-11T22:58:06.001Z,1.60
2018-06-11T23:00:35.000Z,1.47
2018-06-11T23:03:03.482Z,1.60
2018-06-11T23:05:31.951Z,1.47
2018-06-11T23:08:00.424Z,2.25
2018-06-11T23:10:28.875Z,1.40
2018-06-11T23:12:57.375Z,2.08
2018-06-11T23:15:25.894Z,1.40
2018-06-11T23:17:54.358Z,1.70
2018-06-11T23:20:22.822Z,1.40
2018-06-11T23:22:51.346Z,1.42
2018-06-11T23:25:19.777Z,1.30
2018-06-11T23:27:48.201Z,1.40
2018-06-11T23:30:16.636Z,1.40
2018-06-11T23:32:45.041Z,1.40
2018-06-11T23:35:13.481Z,1.30
2018-06-11T23:37:41.924Z,1.30
2018-06-11T23:40:10.311Z,1.30
2018-06-11T23:42:38.730Z,1.30
2018-06-11T23:45:07.170Z,1.30
2018-06-11T23:47:35.623Z,1.50
2018-06-11T23:50:04.059Z,1.50
2018-06-11T23:52:32.498Z,1.50
2018-06-11T23:55:00.926Z,1.35
2018-06-11T23:57:29.378Z,1.30
2018-06-11T23:59:58.195Z,1.90
